Time;durP1;ratioP1;P1;durP2;ratioP2;P2;SDS_P1;SDS_P2;PMS_P1;PMS_P2;Temp;Humidity;BMP_temperature;BMP_pressure;BME280_temperature;BME280_humidity;BME280_pressure;Samples;Min_cycle;Max_cycle;Signal;HPM_P1;HPM_P2
2022/11/08 00:02:11;;;;;;;31.35;20.68;;;;;;;6.65;64.43;101075.86;1659857;84;21102;-72
2022/11/08 00:04:39;;;;;;;25.85;18.60;;;;;;;6.63;64.45;101072.08;1646762;86;21183;-72
2022/11/08 00:15:21;;;;;;;27.90;18.02;;;;;;;6.51;64.32;101077.27;1662517;84;21062;-73
2022/11/08 00:17:47;;;;;;;26.27;18.50;;;;;;;6.47;64.13;101099.16;1650838;84;21184;-73
2022/11/08 00:20:14;;;;;;;28.60;20.05;;;;;;;6.26;64.28;101095.03;1660877;86;21547;-73
2022/11/08 00:22:42;;;;;;;28.45;20.17;;;;;;;6.14;64.49;101088.27;1653524;84;21078;-72
2022/11/08 00:25:10;;;;;;;27.27;19.42;;;;;;;5.82;65.22;101104.64;1649094;86;21130;-73
2022/11/08 00:27:37;;;;;;;28.42;19.05;;;;;;;5.27;66.53;101113.53;1651795;84;21026;-72
2022/11/08 00:30:06;;;;;;;28.02;18.42;;;;;;;5.09;67.07;101110.20;1662596;85;21089;-73
2022/11/08 00:32:33;;;;;;;29.37;19.37;;;;;;;4.99;67.46;101121.73;1656729;84;21552;-72
2022/11/08 00:35:00;;;;;;;30.65;19.80;;;;;;;4.90;67.75;101117.14;1654965;84;21082;-72
2022/11/08 00:37:27;;;;;;;28.35;19.65;;;;;;;4.86;68.02;101115.42;1657866;84;21070;-73
2022/11/08 00:39:55;;;;;;;30.27;19.90;;;;;;;5.51;66.91;101103.56;1653693;84;21565;-72
2022/11/08 00:42:22;;;;;;;30.05;19.55;;;;;;;5.70;66.42;101093.09;1639852;86;21094;-72
2022/11/08 00:44:48;;;;;;;29.95;21.27;;;;;;;5.76;66.23;101099.69;1660767;84;21128;-73
2022/11/08 00:47:15;;;;;;;27.50;18.87;;;;;;;5.79;66.16;101087.34;1661864;84;21070;-74
2022/11/08 00:49:42;;;;;;;29.52;19.70;;;;;;;5.84;66.12;101089.34;1655897;84;21099;-73
2022/11/08 00:52:09;;;;;;;29.45;20.62;;;;;;;5.86;66.06;101092.09;1651144;84;21058;-73
2022/11/08 00:54:35;;;;;;;30.32;19.82;;;;;;;5.87;66.01;101091.05;1656149;84;21062;-73
2022/11/08 00:57:02;;;;;;;26.85;19.32;;;;;;;5.87;66.03;101096.36;1662476;85;21171;-73
2022/11/08 00:59:29;;;;;;;29.48;20.20;;;;;;;5.94;65.97;101087.07;1657887;85;21130;-73
2022/11/08 01:01:55;;;;;;;29.87;19.52;;;;;;;5.97;65.93;101080.53;1661140;85;21166;-73
2022/11/08 01:04:21;;;;;;;30.17;20.12;;;;;;;5.84;66.18;101091.48;1653825;84;21185;-73
2022/11/08 01:06:48;;;;;;;31.70;19.90;;;;;;;5.96;66.21;101084.22;1640872;85;21058;-72
2022/11/08 01:09:15;;;;;;;29.37;19.85;;;;;;;6.04;66.03;101077.32;1660685;84;21257;-72
2022/11/08 01:11:45;;;;;;;27.73;19.32;;;;;;;6.06;66.03;101069.98;1659949;84;21054;-74
2022/11/08 01:14:10;;;;;;;28.10;18.70;;;;;;;6.12;65.92;101074.42;1660973;85;21122;-73
2022/11/08 01:16:38;;;;;;;28.85;19.15;;;;;;;5.59;66.93;101086.59;1657562;84;21093;-73
2022/11/08 01:19:04;;;;;;;28.98;19.25;;;;;;;5.40;67.56;101066.62;1656403;84;21122;-72
2022/11/08 01:21:31;;;;;;;25.75;18.05;;;;;;;5.39;67.76;101052.24;1657235;85;21136;-73
2022/11/08 01:23:57;;;;;;;26.95;18.65;;;;;;;5.79;67.00;101039.63;1661113;85;21106;-71
2022/11/08 01:26:26;;;;;;;28.38;18.45;;;;;;;6.05;66.08;101041.30;1668736;84;21132;-73
2022/11/08 01:28:54;;;;;;;25.68;18.15;;;;;;;6.07;65.71;101032.63;1662298;85;21066;-73
2022/11/08 01:31:28;;;;;;;27.65;19.23;;;;;;;6.02;65.54;101033.80;1660354;84;21105;-73
2022/11/08 01:33:55;;;;;;;32.85;18.98;;;;;;;5.99;65.47;101032.06;1661723;84;21145;-72
2022/11/08 01:36:24;;;;;;;30.17;19.48;;;;;;;5.95;65.50;101036.98;1661589;84;21088;-72
2022/11/08 01:38:51;;;;;;;25.77;17.27;;;;;;;5.92;65.52;101042.68;1660618;84;21054;-72
2022/11/08 01:41:20;;;;;;;27.02;18.90;;;;;;;5.91;65.54;101048.21;1660555;84;21058;-72
2022/11/08 01:43:50;;;;;;;28.25;19.50;;;;;;;5.88;65.56;101050.77;1662933;84;21184;-72
2022/11/08 01:46:34;;;;;;;27.90;19.00;;;;;;;5.85;65.55;101059.95;1662808;84;21035;-73
2022/11/08 01:49:37;;;;;;;27.50;19.65;;;;;;;5.84;65.61;101058.86;1658628;84;22398;-73
2022/11/08 01:52:09;;;;;;;27.30;19.12;;;;;;;5.87;65.64;101067.71;1642875;84;21062;-72
2022/11/08 01:54:57;;;;;;;;;;;;;;;5.86;65.56;101069.55;1664578;84;21073;-72
2022/11/08 01:57:49;;;;;;;26.45;18.95;;;;;;;5.90;65.60;101072.59;1662754;84;20134;-73
2022/11/08 02:00:16;;;;;;;32.10;19.45;;;;;;;5.91;65.54;101060.14;1654173;84;21366;-72
2022/11/08 02:02:48;;;;;;;31.52;19.62;;;;;;;5.93;65.48;101040.90;1651688;84;21142;-73
2022/11/08 02:05:25;;;;;;;28.05;19.27;;;;;;;5.97;65.48;101039.44;1664210;84;21088;-73
2022/11/08 02:08:06;;;;;;;27.90;18.85;;;;;;;6.00;65.40;101042.47;1652177;84;21573;-73
2022/11/08 02:10:37;;;;;;;27.93;18.70;;;;;;;6.03;65.29;101038.58;1664373;84;21030;-72
2022/11/08 02:13:07;;;;;;;30.08;19.45;;;;;;;6.01;65.13;101038.78;1664792;84;21290;-72
2022/11/08 02:15:34;;;;;;;25.60;18.45;;;;;;;6.00;65.13;101037.16;1652836;85;21050;-73
2022/11/08 02:18:01;;;;;;;25.88;17.92;;;;;;;5.65;65.74;101032.76;1660058;84;22236;-72
2022/11/08 02:20:28;;;;;;;28.57;19.55;;;;;;;5.27;66.75;101040.70;1659768;84;21017;-74
2022/11/08 02:23:10;;;;;;;26.35;19.05;;;;;;;5.19;67.07;101045.70;1657178;84;21091;-74
2022/11/08 02:25:36;;;;;;;24.95;18.55;;;;;;;5.14;67.24;101041.05;1662873;84;21247;-72
2022/11/08 02:28:03;;;;;;;26.70;19.27;;;;;;;5.14;67.45;101050.31;1658865;84;21126;-72
2022/11/08 02:30:34;;;;;;;26.62;19.10;;;;;;;5.17;67.58;101055.70;1654686;85;21040;-73
2022/11/08 02:33:21;;;;;;;25.17;18.50;;;;;;;5.18;67.71;101052.84;1663352;84;21113;-72
2022/11/08 02:35:53;;;;;;;27.62;18.10;;;;;;;5.23;67.77;101058.01;1643095;85;21102;-72
2022/11/08 02:38:21;;;;;;;25.32;17.70;;;;;;;5.25;67.76;101057.30;1661207;84;21264;-72
2022/11/08 02:40:54;;;;;;;24.90;17.73;;;;;;;5.28;67.78;101052.91;1664407;84;21463;-74
2022/11/08 02:43:21;;;;;;;24.40;17.73;;;;;;;5.30;67.76;101043.73;1662921;84;26550;-74
2022/11/08 02:45:48;;;;;;;25.15;17.95;;;;;;;5.41;67.54;101048.88;1663365;84;21146;-74
2022/11/08 02:48:15;;;;;;;28.35;18.65;;;;;;;5.88;66.65;101040.97;1670901;84;20977;-74
2022/11/08 02:50:42;;;;;;;26.23;17.87;;;;;;;6.15;65.85;101048.77;1664304;84;22250;-74
2022/11/08 02:53:09;;;;;;;25.32;18.10;;;;;;;5.53;66.96;101062.30;1660290;84;21088;-73
2022/11/08 02:55:36;;;;;;;27.05;17.85;;;;;;;5.46;67.12;101057.00;1664477;84;21526;-72
2022/11/08 02:58:04;;;;;;;24.90;17.95;;;;;;;5.46;67.15;101041.61;1663777;85;21063;-73
2022/11/08 03:00:31;;;;;;;22.95;17.35;;;;;;;5.47;67.07;101047.23;1657101;84;21087;-73
2022/11/08 03:02:58;;;;;;;22.70;16.87;;;;;;;5.48;67.04;101047.53;1664263;84;21597;-73
2022/11/08 03:05:26;;;;;;;26.77;18.12;;;;;;;5.49;67.08;101045.17;1663524;84;21468;-72
2022/11/08 03:07:54;;;;;;;25.17;17.75;;;;;;;5.49;67.01;101051.28;1663844;84;21582;-72
2022/11/08 03:10:21;;;;;;;24.72;18.07;;;;;;;5.48;66.93;101050.18;1652163;84;21086;-73
2022/11/08 03:12:59;;;;;;;24.60;17.17;;;;;;;5.48;66.91;101047.53;1667218;84;21067;-73
2022/11/08 03:15:26;;;;;;;24.57;17.77;;;;;;;5.48;66.90;101042.23;1645228;84;21507;-72
2022/11/08 03:17:57;;;;;;;23.85;15.15;;;;;;;5.48;66.86;101035.09;1664681;84;21157;-74
2022/11/08 03:20:24;;;;;;;23.73;17.23;;;;;;;5.46;66.87;101041.09;1662030;84;21447;-73
2022/11/08 03:23:05;;;;;;;22.13;15.90;;;;;;;5.47;66.84;101037.97;1668680;84;21604;-73
2022/11/08 03:25:32;;;;;;;24.23;16.42;;;;;;;5.47;66.82;101033.99;1664878;84;21522;-74
2022/11/08 03:28:02;;;;;;;22.70;16.57;;;;;;;5.50;66.65;101029.08;1652009;84;21075;-75
2022/11/08 03:30:29;;;;;;;24.10;16.37;;;;;;;5.46;66.73;101038.97;1661982;84;21075;-74
2022/11/08 03:32:57;;;;;;;24.10;16.82;;;;;;;5.44;66.86;101021.16;1658353;84;21043;-74
2022/11/08 03:35:23;;;;;;;25.25;16.17;;;;;;;5.45;66.94;101028.89;1654674;84;21514;-73
2022/11/08 03:37:52;;;;;;;25.23;17.20;;;;;;;5.46;66.90;101037.64;1655254;84;21078;-74
2022/11/08 03:40:18;;;;;;;23.22;15.75;;;;;;;5.45;66.91;101040.81;1663006;84;21224;-74
2022/11/08 03:42:47;;;;;;;22.95;16.25;;;;;;;5.46;66.99;101037.64;1664327;84;21106;-73
2022/11/08 03:45:17;;;;;;;22.25;15.40;;;;;;;5.45;67.07;101037.35;1662945;84;21086;-74
2022/11/08 03:47:46;;;;;;;22.90;15.80;;;;;;;5.48;67.10;101040.91;1662223;84;21025;-74
2022/11/08 03:50:14;;;;;;;22.20;15.43;;;;;;;5.48;67.01;101044.88;1659306;84;21039;-74
2022/11/08 03:52:47;;;;;;;20.15;15.15;;;;;;;5.46;67.01;101042.42;1663871;85;21012;-73
2022/11/08 03:55:14;;;;;;;22.52;15.15;;;;;;;5.46;66.95;101044.27;1654034;84;24336;-74
2022/11/08 03:57:41;;;;;;;21.85;15.78;;;;;;;5.38;66.81;101052.76;1657918;84;21079;-73
2022/11/08 04:00:11;;;;;;;21.45;15.50;;;;;;;5.29;66.85;101048.72;1666294;84;21037;-73
2022/11/08 04:02:41;;;;;;;22.10;15.45;;;;;;;5.29;67.05;101047.39;1663954;84;21791;-73
2022/11/08 04:05:10;;;;;;;22.13;15.80;;;;;;;5.33;67.12;101049.95;1661852;84;21772;-72
2022/11/08 04:07:37;;;;;;;22.35;14.63;;;;;;;5.34;67.18;101055.53;1667654;84;21003;-74
2022/11/08 04:10:05;;;;;;;21.62;15.45;;;;;;;5.36;67.25;101046.04;1664750;86;22166;-75
2022/11/08 04:15:21;;;;;;;21.40;15.10;;;;;;;5.38;67.27;101044.81;1627916;85;21541;-75
2022/11/08 04:23:31;;;;;;;21.17;14.73;;;;;;;5.34;67.24;101038.83;1657100;84;21685;-73
2022/11/08 04:26:01;;;;;;;20.17;14.93;;;;;;;5.34;67.26;101037.51;1663828;85;21696;-73
2022/11/08 04:28:30;;;;;;;21.45;15.03;;;;;;;5.36;67.24;101036.28;1667090;84;21128;-73
2022/11/08 04:31:01;;;;;;;20.52;14.95;;;;;;;5.36;67.22;101045.55;1654492;84;21237;-73
2022/11/08 04:33:28;;;;;;;21.68;15.03;;;;;;;5.35;67.24;101039.12;1663256;84;21058;-73
2022/11/08 04:35:55;;;;;;;22.17;15.88;;;;;;;5.37;67.33;101041.88;1666295;84;21031;-74
2022/11/08 04:38:21;;;;;;;21.95;14.63;;;;;;;5.36;67.34;101044.23;1664630;85;21011;-74
2022/11/08 04:40:48;;;;;;;21.30;15.48;;;;;;;5.38;67.44;101045.33;1645955;84;21110;-73
2022/11/08 04:43:15;;;;;;;20.77;14.93;;;;;;;5.33;67.34;101038.02;1656323;85;21189;-72
2022/11/08 04:45:43;;;;;;;20.37;14.63;;;;;;;5.31;67.46;101042.70;1664275;84;21479;-73
2022/11/08 04:48:09;;;;;;;21.62;14.60;;;;;;;5.30;67.46;101038.44;1664987;84;20998;-72
2022/11/08 04:50:37;;;;;;;21.52;15.53;;;;;;;5.29;67.46;101035.47;1665684;84;21342;-74
2022/11/08 04:53:04;;;;;;;22.40;15.23;;;;;;;5.30;67.60;101039.77;1665033;84;21209;-74
2022/11/08 04:55:31;;;;;;;19.32;14.38;;;;;;;5.30;67.65;101034.98;1664808;84;21176;-74
2022/11/08 04:57:58;;;;;;;20.77;14.98;;;;;;;5.30;67.74;101035.80;1657617;84;21046;-73
2022/11/08 05:00:25;;;;;;;21.48;15.40;;;;;;;5.31;67.78;101042.70;1660898;84;21032;-73
2022/11/08 05:02:53;;;;;;;21.65;14.98;;;;;;;5.30;67.86;101031.82;1664181;84;21554;-76
2022/11/08 05:05:20;;;;;;;22.77;15.58;;;;;;;5.31;67.83;101040.06;1666248;84;21689;-74
2022/11/08 05:07:47;;;;;;;21.40;14.78;;;;;;;5.31;67.77;101044.03;1654639;84;21261;-74
2022/11/08 05:10:14;;;;;;;22.00;15.30;;;;;;;5.27;67.78;101036.73;1665900;84;20975;-73
2022/11/08 05:12:40;;;;;;;21.33;14.87;;;;;;;5.22;67.82;101049.25;1668392;84;21086;-71
2022/11/08 05:15:08;;;;;;;23.35;16.23;;;;;;;5.19;67.92;101041.73;1662713;84;21129;-74
2022/11/08 05:17:36;;;;;;;21.30;15.32;;;;;;;5.20;68.08;101044.70;1649669;84;21324;-72
2022/11/08 05:25:39;;;;;;;22.10;15.25;;;;;;;5.28;68.32;101047.09;1650405;86;21059;-73
2022/11/08 05:28:05;;;;;;;20.50;14.38;;;;;;;5.33;68.37;101051.75;1661101;84;21079;-73
2022/11/08 05:30:32;;;;;;;22.22;15.28;;;;;;;5.38;68.38;101059.90;1655097;84;21126;-73
2022/11/08 05:32:59;;;;;;;20.48;14.60;;;;;;;5.37;68.30;101059.09;1664931;84;21808;-72
2022/11/08 05:35:26;;;;;;;19.52;14.73;;;;;;;5.37;68.28;101064.91;1652298;84;21491;-73
2022/11/08 05:37:53;;;;;;;22.22;15.55;;;;;;;5.37;68.30;101057.77;1652823;85;21067;-74
2022/11/08 05:40:19;;;;;;;21.77;15.08;;;;;;;5.42;68.36;101055.80;1654224;84;21137;-74
2022/11/08 05:42:46;;;;;;;21.02;14.80;;;;;;;5.45;68.35;101051.92;1651979;84;21032;-73
2022/11/08 05:45:12;;;;;;;20.97;14.80;;;;;;;5.47;68.34;101052.53;1657337;85;21149;-73
2022/11/08 05:47:45;;;;;;;22.42;15.45;;;;;;;5.52;68.35;101055.35;1646776;85;21062;-73
2022/11/08 05:50:12;;;;;;;;;;;;;;;5.56;68.34;101062.69;1649551;85;21630;-72
2022/11/08 05:52:39;;;;;;;22.02;15.72;;;;;;;5.59;68.34;101059.61;1642393;85;20156;-73
2022/11/08 05:55:06;;;;;;;21.68;15.20;;;;;;;5.62;68.26;101059.16;1633067;86;21071;-73
2022/11/08 05:57:33;;;;;;;21.93;14.50;;;;;;;5.69;68.24;101068.92;1638386;85;22019;-73
2022/11/08 06:00:00;;;;;;;21.30;14.85;;;;;;;5.69;68.17;101068.41;1651021;86;21612;-73
2022/11/08 06:02:28;;;;;;;20.92;14.00;;;;;;;5.71;68.13;101066.36;1642672;85;21080;-73
2022/11/08 06:04:54;;;;;;;22.17;15.20;;;;;;;5.74;68.14;101065.95;1642529;85;21077;-73
2022/11/08 06:07:21;;;;;;;19.02;14.35;;;;;;;5.79;68.15;101056.02;1641350;85;21039;-74
2022/11/08 06:09:49;;;;;;;22.05;14.73;;;;;;;5.85;68.12;101057.82;1638271;84;21178;-73
2022/11/08 06:12:16;;;;;;;22.62;15.25;;;;;;;5.87;68.03;101059.24;1643773;85;21011;-73
2022/11/08 06:14:42;;;;;;;20.15;13.62;;;;;;;5.91;68.01;101065.45;1682272;84;21068;-73
2022/11/08 06:17:09;;;;;;;20.05;15.20;;;;;;;5.95;67.89;101069.31;1656848;84;21525;-75
2022/11/08 06:19:36;;;;;;;20.57;14.38;;;;;;;5.95;67.82;101063.50;1649850;84;21097;-73
2022/11/08 06:22:02;;;;;;;19.00;13.62;;;;;;;5.99;67.80;101059.41;1646312;84;21174;-73
2022/11/08 06:24:30;;;;;;;21.42;14.55;;;;;;;6.04;67.70;101064.88;1664111;85;21020;-74
2022/11/08 06:26:57;;;;;;;20.32;13.58;;;;;;;6.05;67.48;101072.31;1664110;86;21644;-73
2022/11/08 06:29:24;;;;;;;21.57;14.10;;;;;;;6.05;67.48;101075.77;1664727;84;20984;-72
2022/11/08 06:31:51;;;;;;;18.48;14.13;;;;;;;6.06;67.36;101076.09;1662596;86;21078;-72
2022/11/08 06:34:18;;;;;;;18.92;14.30;;;;;;;6.06;67.40;101077.41;1664340;86;21183;-72
2022/11/08 06:36:45;;;;;;;19.35;13.88;;;;;;;6.10;67.38;101073.82;1662899;85;20964;-72
2022/11/08 06:39:12;;;;;;;21.15;13.60;;;;;;;6.14;67.40;101068.89;1664547;86;20996;-72
2022/11/08 06:41:39;;;;;;;19.77;13.75;;;;;;;6.16;67.27;101063.69;1664385;86;21612;-72
2022/11/08 06:44:06;;;;;;;18.27;13.62;;;;;;;6.15;67.24;101060.70;1664991;86;21153;-74
2022/11/08 06:46:33;;;;;;;16.90;12.07;;;;;;;6.20;67.30;101045.49;1662830;85;21167;-72
2022/11/08 06:49:00;;;;;;;20.57;14.45;;;;;;;6.21;67.20;101047.92;1660444;85;21085;-73
2022/11/08 06:51:26;;;;;;;21.87;14.10;;;;;;;6.19;67.13;101048.67;1663486;85;21126;-73
2022/11/08 06:53:53;;;;;;;18.23;13.53;;;;;;;6.19;67.23;101044.69;1646449;85;21051;-74
2022/11/08 06:56:20;;;;;;;19.35;14.20;;;;;;;6.20;67.25;101048.95;1637512;84;21691;-72
2022/11/08 06:58:47;;;;;;;20.48;13.22;;;;;;;6.25;67.32;101045.16;1662780;84;21792;-73
2022/11/08 07:01:14;;;;;;;18.92;14.03;;;;;;;6.31;67.34;101039.47;1663121;86;21449;-73
2022/11/08 07:03:40;;;;;;;18.95;13.72;;;;;;;6.36;67.28;101043.63;1664512;86;21088;-72
2022/11/08 07:06:07;;;;;;;20.20;13.98;;;;;;;6.40;67.23;101050.13;1664007;85;21029;-73
2022/11/08 07:08:34;;;;;;;18.23;13.58;;;;;;;6.42;67.13;101056.55;1663478;86;21056;-72
2022/11/08 07:11:01;;;;;;;20.20;14.30;;;;;;;6.47;67.07;101060.68;1663342;86;21254;-73
2022/11/08 07:13:29;;;;;;;18.70;13.38;;;;;;;6.50;66.96;101062.91;1663074;85;21036;-72
2022/11/08 07:15:58;;;;;;;20.15;14.78;;;;;;;6.49;66.82;101061.28;1663200;86;21021;-72
2022/11/08 07:18:24;;;;;;;18.62;13.45;;;;;;;6.45;66.82;101060.91;1663483;86;21009;-74
2022/11/08 07:20:52;;;;;;;19.45;14.38;;;;;;;6.47;66.92;101062.01;1663182;86;21115;-73
2022/11/08 07:23:18;;;;;;;17.65;13.28;;;;;;;6.50;67.02;101055.75;1663352;86;21646;-71
2022/11/08 07:25:46;;;;;;;21.20;14.07;;;;;;;6.56;67.02;101058.86;1663090;86;20981;-72
2022/11/08 07:28:16;;;;;;;16.42;12.33;;;;;;;6.60;66.99;101064.55;1663484;86;21001;-72
2022/11/08 07:30:46;;;;;;;18.98;13.53;;;;;;;6.65;66.98;101060.73;1663253;86;21504;-72
2022/11/08 07:33:13;;;;;;;21.45;14.73;;;;;;;6.62;66.82;101061.17;1663430;86;21441;-72
2022/11/08 07:35:40;;;;;;;21.35;14.03;;;;;;;6.60;66.95;101061.08;1663072;86;21929;-73
2022/11/08 07:38:06;;;;;;;18.95;13.35;;;;;;;6.61;66.98;101064.83;1663745;86;21020;-72
2022/11/08 07:40:34;;;;;;;20.15;14.05;;;;;;;6.60;67.03;101060.56;1663416;86;21742;-73
2022/11/08 07:43:00;;;;;;;18.95;13.70;;;;;;;6.63;67.08;101064.63;1663510;86;21132;-73
2022/11/08 07:45:28;;;;;;;20.37;13.83;;;;;;;6.65;67.04;101071.35;1663191;86;20980;-72
2022/11/08 07:48:04;;;;;;;20.32;13.78;;;;;;;6.67;67.09;101067.95;1652316;85;21081;-72
2022/11/08 07:50:30;;;;;;;16.02;12.25;;;;;;;6.71;67.11;101068.32;1637947;87;21034;-73
2022/11/08 07:52:57;;;;;;;18.42;13.65;;;;;;;6.72;66.99;101069.97;1651923;85;20979;-73
2022/11/08 07:55:25;;;;;;;18.95;13.10;;;;;;;6.67;67.03;101069.27;1636695;87;21122;-73
2022/11/08 07:57:57;;;;;;;18.25;12.98;;;;;;;6.70;67.17;101069.36;1637704;87;21526;-73
2022/11/08 08:00:21;;;;;;;17.92;13.72;;;;;;;6.73;67.13;101072.91;1616372;87;21832;-73
2022/11/08 08:02:48;;;;;;;19.07;13.00;;;;;;;6.77;67.23;101063.47;1637754;87;21066;-73
2022/11/08 08:05:16;;;;;;;19.82;13.95;;;;;;;6.87;67.34;101068.28;1640181;85;21162;-73
2022/11/08 08:07:42;;;;;;;19.27;14.30;;;;;;;6.92;67.14;101059.15;1639647;85;20969;-73
2022/11/08 08:10:09;;;;;;;20.17;14.05;;;;;;;7.00;67.22;101053.53;1645341;85;21056;-73
2022/11/08 08:12:36;;;;;;;17.77;14.03;;;;;;;7.08;67.07;101057.76;1657957;85;21322;-73
2022/11/08 08:15:04;;;;;;;21.75;14.40;;;;;;;7.10;66.95;101051.17;1637915;87;21078;-72
2022/11/08 08:17:32;;;;;;;17.92;13.10;;;;;;;7.16;66.93;101052.95;1640573;85;21550;-73
2022/11/08 08:20:00;;;;;;;20.15;13.95;;;;;;;7.22;66.88;101053.39;1662792;85;21080;-75
2022/11/08 08:22:28;;;;;;;21.10;13.70;;;;;;;7.28;66.81;101053.02;1651020;85;21172;-72
2022/11/08 08:24:55;;;;;;;18.67;13.75;;;;;;;7.35;66.70;101063.58;1614448;87;21335;-72
2022/11/08 08:27:22;;;;;;;19.82;14.05;;;;;;;7.35;66.54;101062.25;1659874;85;21529;-72
2022/11/08 08:29:49;;;;;;;17.80;13.58;;;;;;;7.28;66.34;101054.35;1662334;85;20981;-72
2022/11/08 08:32:15;;;;;;;19.73;14.00;;;;;;;7.23;66.40;101055.00;1646121;85;20991;-73
2022/11/08 08:34:43;;;;;;;19.05;14.05;;;;;;;7.22;66.56;101052.06;1627478;85;21567;-73
2022/11/08 08:37:14;;;;;;;20.57;13.95;;;;;;;7.28;66.63;101059.14;1639317;85;21564;-72
2022/11/08 08:39:40;;;;;;;20.25;13.98;;;;;;;7.31;66.58;101051.77;1644640;85;21043;-73
2022/11/08 08:42:07;;;;;;;21.05;14.38;;;;;;;7.35;66.69;101052.95;1658667;86;21091;-72
2022/11/08 08:44:34;;;;;;;20.02;14.05;;;;;;;7.44;66.72;101048.95;1661731;86;21036;-73
2022/11/08 08:47:01;;;;;;;20.80;14.35;;;;;;;7.50;66.69;101046.70;1637647;87;21066;-73
2022/11/08 08:49:28;;;;;;;21.23;14.60;;;;;;;7.58;66.60;101053.05;1663196;84;21596;-73
2022/11/08 08:51:55;;;;;;;20.55;13.88;;;;;;;7.62;66.54;101051.56;1664847;86;21545;-73
2022/11/08 08:54:21;;;;;;;20.45;13.98;;;;;;;7.70;66.55;101049.94;1653967;85;21096;-73
2022/11/08 08:56:48;;;;;;;19.75;13.75;;;;;;;7.77;66.41;101048.51;1637452;87;21110;-73
2022/11/08 08:59:15;;;;;;;22.00;14.50;;;;;;;7.79;66.22;101051.73;1639818;85;20988;-73
2022/11/08 09:01:42;;;;;;;20.60;14.65;;;;;;;7.74;66.21;101051.09;1645499;85;21559;-74
2022/11/08 09:04:10;;;;;;;20.62;14.43;;;;;;;7.72;66.18;101047.03;1637708;87;20996;-73
2022/11/08 09:06:37;;;;;;;21.90;14.60;;;;;;;7.70;66.29;101050.42;1637540;87;21497;-73
2022/11/08 09:09:03;;;;;;;21.33;14.43;;;;;;;7.74;66.35;101050.28;1637124;87;21073;-73
2022/11/08 09:11:30;;;;;;;22.58;15.48;;;;;;;7.78;66.35;101047.98;1637174;87;21114;-73
2022/11/08 09:13:57;;;;;;;21.12;14.83;;;;;;;7.81;66.35;101052.33;1637818;87;21798;-73
2022/11/08 09:16:23;;;;;;;20.62;14.87;;;;;;;7.84;66.28;101048.42;1637904;87;21657;-73
2022/11/08 09:18:50;;;;;;;23.32;14.93;;;;;;;7.82;66.36;101045.16;1637868;87;21577;-72
2022/11/08 09:21:16;;;;;;;22.48;15.20;;;;;;;7.86;66.46;101039.67;1637549;87;21132;-73
2022/11/08 09:23:43;;;;;;;21.77;14.63;;;;;;;7.94;66.55;101036.70;1637675;87;21474;-73
2022/11/08 09:26:11;;;;;;;22.32;15.30;;;;;;;8.00;66.57;101039.79;1637643;87;21205;-72
2022/11/08 09:28:38;;;;;;;21.90;14.58;;;;;;;8.08;66.50;101039.45;1647442;85;21515;-73
2022/11/08 09:31:08;;;;;;;21.07;14.10;;;;;;;8.15;66.46;101041.48;1662081;85;21053;-72
2022/11/08 09:33:36;;;;;;;22.02;14.53;;;;;;;8.23;66.30;101045.16;1658297;85;21079;-72
2022/11/08 09:36:05;;;;;;;22.10;15.60;;;;;;;8.22;66.15;101040.84;1637688;87;21070;-72
2022/11/08 09:38:32;;;;;;;22.65;15.28;;;;;;;8.23;66.07;101042.48;1636964;87;21233;-71
2022/11/08 09:41:20;;;;;;;24.90;16.02;;;;;;;8.18;65.96;101039.69;1655117;85;21048;-72
2022/11/08 09:44:10;;;;;;;20.55;13.75;;;;;;;8.16;66.13;101043.61;1663370;86;21036;-71
2022/11/08 09:46:50;;;;;;;22.73;15.88;;;;;;;8.21;66.21;101043.23;1663350;86;20990;-72
2022/11/08 09:49:34;;;;;;;22.85;15.20;;;;;;;8.17;66.15;101043.41;1642973;85;21082;-73
2022/11/08 09:52:00;;;;;;;22.95;14.93;;;;;;;8.20;66.38;101036.30;1636201;87;21114;-72
2022/11/08 09:54:33;;;;;;;21.57;14.63;;;;;;;8.26;66.50;101039.06;1646851;85;21078;-72
2022/11/08 09:57:03;;;;;;;21.48;14.75;;;;;;;8.27;66.37;101028.73;1664232;86;21043;-72
2022/11/08 09:59:48;;;;;;;20.60;14.80;;;;;;;8.29;66.40;101030.13;1661106;85;21173;-73
2022/11/08 10:02:19;;;;;;;21.60;14.70;;;;;;;8.32;66.49;101030.16;1645823;85;21532;-72
2022/11/08 10:04:51;;;;;;;24.37;14.85;;;;;;;8.41;66.50;101030.15;1662357;86;21892;-72
2022/11/08 10:07:44;;;;;;;23.20;14.45;;;;;;;8.48;66.45;101031.37;1638890;86;21086;-71
2022/11/08 10:10:38;;;;;;;24.05;15.08;;;;;;;8.53;66.42;101032.83;1656641;85;21047;-72
2022/11/08 10:13:47;;;;;;;23.40;13.93;;;;;;;8.52;66.41;101032.52;1637014;87;21541;-74
2022/11/08 10:16:38;;;;;;;24.47;14.93;;;;;;;8.53;66.51;101033.64;1598416;86;21016;-73
2022/11/08 10:19:43;;;;;;;25.00;15.75;;;;;;;8.53;66.60;101035.49;1654753;85;21049;-72
2022/11/08 10:22:44;;;;;;;22.87;14.23;;;;;;;8.54;66.70;101033.11;1663268;86;20974;-72
2022/11/08 10:25:31;;;;;;;25.88;15.93;;;;;;;8.57;66.77;101031.32;1647589;85;21082;-74
2022/11/08 10:28:00;;;;;;;28.32;15.13;;;;;;;8.52;66.92;101028.52;1622045;87;21062;-74
2022/11/08 10:30:33;;;;;;;24.10;15.20;;;;;;;8.56;67.22;101023.86;1637448;87;21035;-74
2022/11/08 10:33:00;;;;;;;27.00;15.98;;;;;;;8.61;67.31;101023.95;1637716;87;21975;-74
2022/11/08 10:35:37;;;;;;;27.32;15.80;;;;;;;8.67;67.52;101023.03;1659338;85;21033;-72
2022/11/08 10:38:15;;;;;;;26.33;16.35;;;;;;;8.77;67.64;101018.45;1663374;86;21572;-74
2022/11/08 10:40:46;;;;;;;29.63;16.82;;;;;;;8.91;67.67;101016.34;1662897;86;20997;-74
2022/11/08 10:43:18;;;;;;;24.90;15.08;;;;;;;9.02;67.65;101015.52;1662925;86;21099;-74
2022/11/08 10:45:45;;;;;;;25.25;16.27;;;;;;;9.13;67.57;101015.20;1663480;86;21210;-74
2022/11/08 10:48:12;;;;;;;24.25;15.08;;;;;;;9.22;67.46;101017.79;1659327;85;21114;-74
2022/11/08 10:50:48;;;;;;;25.55;15.15;;;;;;;9.30;67.26;101010.73;1663806;85;21074;-74
2022/11/08 10:53:28;;;;;;;28.23;15.80;;;;;;;9.36;67.20;101011.13;1647792;85;21126;-74
2022/11/08 10:56:00;;;;;;;22.82;14.78;;;;;;;9.43;67.21;101020.31;1637820;87;21030;-74
2022/11/08 10:58:39;;;;;;;21.23;13.58;;;;;;;9.48;66.94;101023.09;1641753;85;21215;-74
2022/11/08 11:01:21;;;;;;;24.98;14.45;;;;;;;9.41;66.74;101017.09;1637455;87;21024;-73
2022/11/08 11:03:49;;;;;;;29.48;15.98;;;;;;;9.38;66.90;101022.91;1639703;85;21151;-74
2022/11/08 11:06:29;;;;;;;24.92;15.48;;;;;;;9.41;66.95;101022.43;1639779;85;21051;-74
2022/11/08 11:09:02;;;;;;;26.85;15.10;;;;;;;9.49;67.02;101019.90;1637597;87;21035;-74
2022/11/08 11:11:35;;;;;;;27.87;16.73;;;;;;;9.58;66.96;101016.61;1637502;87;21948;-73
2022/11/08 11:14:20;;;;;;;26.68;16.45;;;;;;;9.67;66.90;101010.88;1663227;86;21473;-73
2022/11/08 11:16:59;;;;;;;25.43;16.53;;;;;;;9.79;66.89;101023.64;1663350;86;21037;-72
2022/11/08 11:19:25;;;;;;;26.70;16.37;;;;;;;9.88;66.55;101026.20;1663703;86;21475;-73
2022/11/08 11:22:07;;;;;;;27.33;15.77;;;;;;;9.86;66.54;101018.42;1660150;85;21143;-73
2022/11/08 11:24:35;;;;;;;29.10;16.20;;;;;;;9.91;66.57;101012.39;1639317;87;21446;-72
2022/11/08 11:27:06;;;;;;;30.07;17.17;;;;;;;9.98;66.63;101003.70;1638650;85;21205;-72
2022/11/08 11:29:35;;;;;;;31.10;17.53;;;;;;;10.04;66.46;101005.40;1640351;84;21694;-73
2022/11/08 11:32:33;;;;;;;28.10;17.80;;;;;;;10.08;66.33;101015.06;1637814;86;21756;-73
2022/11/08 11:35:04;;;;;;;26.57;15.60;;;;;;;10.08;66.42;101013.20;1639132;85;21420;-74
2022/11/08 11:37:44;;;;;;;28.23;17.20;;;;;;;10.15;66.46;101013.56;1639262;85;21372;-74
2022/11/08 11:40:37;;;;;;;25.67;15.90;;;;;;;10.20;66.40;101018.47;1643405;85;21643;-72
2022/11/08 11:43:09;;;;;;;30.90;17.83;;;;;;;10.29;66.48;101018.35;1637306;87;21337;-74
2022/11/08 11:46:07;;;;;;;30.20;17.37;;;;;;;10.38;66.45;101023.30;1659573;85;21246;-73
2022/11/08 11:48:40;;;;;;;27.00;16.97;;;;;;;10.38;66.18;101014.77;1652876;85;21070;-74
2022/11/08 11:51:09;;;;;;;27.03;16.23;;;;;;;10.33;66.27;101028.02;1639401;85;21229;-74
2022/11/08 11:53:38;;;;;;;31.68;17.48;;;;;;;10.32;66.32;101033.89;1651744;85;21313;-74